Accueil
METAR-TAF:

METAR-TAF

Aéroports :

Majuro, Majuro Atoll, Îles Marshall

Aéroport international des îles Marshall

latitude: 07-04N, longitude: 171-17E, altitude: 2 m

Observation

Le bulletin a été fait il y a 13 heures et 37 minutes, à 22:52 UTC
Vent 30 kt de est/nord-est
Température 28°C
Humidité 79%
Pression 1011 hPa
Visibilité: 24.1 km
Nuages épars à une hauteur de 1400 ft
Nuages fragmentés à une hauteur de 5000 ft
Ciel couvert à une hauteur de 12000 ft

METAR: PKMJ 222252Z 07030KT 15SM SCT014 BKN050 OVC120 28/24 A2985

Heure: 00:29 (12:29 UTC)

Prévision

Le bulletin a été fait il y a 1 heure et 3 minutes, à 11:26 UTC
Prévision valable du 23 à 12 UTC au 24 à 12 UTC
Vent 12 kt de est
Visibilité: 10 km
Nuages épars à une hauteur de 1400 ft
Nuages épars à une hauteur de 5000 ft
Nuages fragmentés à une hauteur de 12000 ft
averses à proximité

TAF: PKMJ 231126Z 2312/2412 08012KT P6SM VCSH SCT014 SCT050 BKN120

Observations et prévisions météorologiques de plus de 4000 aéroports (messages METAR et TAF).

Les stations disponibles sont représentées par des disques jaunes et rouges sur la carte.

Passer la souris dessus pour voir le nom de la station.

Cliquer dessus pour voir les observations et prévisions météorologiques.

Pour changer de carte: cliquez sur les boutons verts avec une croix noire pour zoomer, sur le bouton vert avec un tiret pour effectuer un zoom arrière, ou sur les flèches vertes pour les cartes adjacentes.


METAR-TAF: